createdAt,value
2023-03-29T00:00:49.607Z,52.50
2023-03-29T00:01:52.466Z,53.22
2023-03-29T00:02:56.523Z,52.49
2023-03-29T00:04:02.437Z,51.99
2023-03-29T00:05:05.215Z,51.18
2023-03-29T00:06:07.202Z,51.49
2023-03-29T00:07:09.385Z,51.93
2023-03-29T00:08:14.471Z,51.32
2023-03-29T00:09:18.313Z,51.54
2023-03-29T00:10:25.080Z,52.53
2023-03-29T00:11:27.425Z,52.10
2023-03-29T00:12:29.577Z,52.31
2023-03-29T00:13:31.393Z,52.78
2023-03-29T00:14:33.260Z,53.69
2023-03-29T00:15:35.640Z,53.61
2023-03-29T00:16:37.782Z,53.26
2023-03-29T00:17:40.131Z,53.13
2023-03-29T00:18:42.026Z,53.15
2023-03-29T00:19:45.294Z,53.39
2023-03-29T00:20:53.823Z,53.95
2023-03-29T00:21:55.716Z,53.92
2023-03-29T00:22:57.910Z,54.24
2023-03-29T00:23:59.766Z,54.40
2023-03-29T00:25:01.643Z,54.76
2023-03-29T00:26:05.869Z,55.44
2023-03-29T00:27:09.122Z,55.58
2023-03-29T00:28:11.254Z,55.73
2023-03-29T00:29:13.117Z,55.96
2023-03-29T00:30:15.924Z,56.04
2023-03-29T00:31:18.620Z,55.40
2023-03-29T00:32:20.650Z,56.77
2023-03-29T00:33:22.863Z,56.32
2023-03-29T00:34:30.701Z,56.24
2023-03-29T00:35:33.173Z,56.71
2023-03-29T00:36:35.042Z,57.43
2023-03-29T00:37:38.011Z,57.01
2023-03-29T00:38:40.505Z,56.73
2023-03-29T00:39:42.660Z,56.76
2023-03-29T00:40:47.080Z,56.56
2023-03-29T00:41:50.315Z,55.98
2023-03-29T00:42:52.272Z,55.13
2023-03-29T00:44:03.096Z,54.77
2023-03-29T00:45:07.067Z,54.54
2023-03-29T00:46:09.257Z,54.66
2023-03-29T00:47:11.474Z,55.15
2023-03-29T00:48:22.048Z,55.51
2023-03-29T00:49:24.316Z,56.13
2023-03-29T00:50:38.043Z,56.72
2023-03-29T00:51:41.461Z,56.61
2023-03-29T00:52:48.870Z,56.73
2023-03-29T00:53:55.616Z,56.54
2023-03-29T00:55:01.532Z,56.29
2023-03-29T00:56:07.431Z,56.15
2023-03-29T00:57:12.002Z,56.46
2023-03-29T00:58:17.933Z,57.18
2023-03-29T00:59:25.311Z,58.38
2023-03-29T01:00:34.966Z,58.47
2023-03-29T01:01:44.968Z,58.56
2023-03-29T01:02:54.250Z,57.96
2023-03-29T01:04:08.937Z,56.78
2023-03-29T01:05:17.507Z,56.37
2023-03-29T01:06:24.843Z,55.72
2023-03-29T01:07:35.386Z,56.69
2023-03-29T01:08:54.643Z,57.93
2023-03-29T01:10:09.253Z,59.67
2023-03-29T01:11:14.852Z,60.03
2023-03-29T01:12:22.317Z,59.68
2023-03-29T01:13:55.234Z,59.91
2023-03-29T01:15:06.981Z,60.22
2023-03-29T01:16:11.641Z,60.63
2023-03-29T01:17:13.499Z,61.09
2023-03-29T01:18:15.684Z,60.28
2023-03-29T01:19:22.203Z,58.97
2023-03-29T01:20:43.518Z,59.50
2023-03-29T01:21:52.912Z,58.84
2023-03-29T01:23:10.046Z,58.36
2023-03-29T01:24:27.565Z,58.45
2023-03-29T01:25:48.168Z,58.96
2023-03-29T01:27:03.242Z,59.08
2023-03-29T01:28:31.324Z,58.89
2023-03-29T01:29:57.295Z,60.14
2023-03-29T01:31:32.560Z,59.80
2023-03-29T01:32:42.350Z,59.44
2023-03-29T01:33:49.384Z,58.94
2023-03-29T01:35:10.370Z,58.96
2023-03-29T01:36:29.470Z,59.40
2023-03-29T01:37:39.409Z,59.61
2023-03-29T01:38:46.475Z,59.48
2023-03-29T01:39:48.423Z,59.61
2023-03-29T01:40:50.820Z,60.77
2023-03-29T01:42:01.693Z,60.40
2023-03-29T01:43:27.856Z,60.62
2023-03-29T01:44:34.053Z,60.79
2023-03-29T01:46:04.169Z,59.84
2023-03-29T01:47:19.607Z,59.88
2023-03-29T01:48:45.680Z,60.14
2023-03-29T01:50:09.427Z,60.71
2023-03-29T01:51:25.129Z,61.28
2023-03-29T01:52:38.261Z,62.61
2023-03-29T01:53:47.074Z,61.84
2023-03-29T01:55:12.353Z,61.44
2023-03-29T01:56:21.747Z,61.72
2023-03-29T01:57:26.379Z,61.89
2023-03-29T01:58:34.041Z,61.65
2023-03-29T01:59:41.292Z,61.47
2023-03-29T02:00:43.919Z,62.22
2023-03-29T02:01:51.725Z,62.57
2023-03-29T02:02:59.253Z,61.57
2023-03-29T02:04:04.614Z,61.84
2023-03-29T02:05:09.986Z,61.67
2023-03-29T02:06:15.573Z,61.27
2023-03-29T02:07:21.139Z,60.58
2023-03-29T02:08:24.056Z,62.06
2023-03-29T02:09:27.087Z,63.56
2023-03-29T02:10:30.245Z,63.48
2023-03-29T02:11:33.790Z,63.50
2023-03-29T02:12:38.160Z,64.27
2023-03-29T02:13:40.267Z,64.94
2023-03-29T02:14:42.728Z,65.34
2023-03-29T02:15:46.148Z,65.20
2023-03-29T02:16:49.660Z,65.78
2023-03-29T02:17:51.737Z,65.73
2023-03-29T02:18:56.514Z,66.64
2023-03-29T02:20:14.283Z,65.95
2023-03-29T02:21:24.064Z,65.71
2023-03-29T02:22:37.482Z,65.58
2023-03-29T02:23:45.820Z,65.37
2023-03-29T02:24:50.120Z,64.58
2023-03-29T02:25:56.967Z,64.42
2023-03-29T02:27:01.302Z,64.87
2023-03-29T02:28:05.814Z,64.85
2023-03-29T02:29:08.417Z,63.88
2023-03-29T02:30:12.776Z,64.16
2023-03-29T02:31:35.146Z,64.90
2023-03-29T02:32:45.574Z,65.52
2023-03-29T02:34:02.470Z,65.62
2023-03-29T02:35:18.150Z,64.99
2023-03-29T02:36:41.723Z,64.56
2023-03-29T02:37:46.357Z,63.80
2023-03-29T02:38:48.651Z,63.09
2023-03-29T02:39:52.474Z,63.96
2023-03-29T02:40:56.674Z,64.39
2023-03-29T02:41:59.733Z,64.30
2023-03-29T02:43:03.204Z,63.41
2023-03-29T02:44:08.219Z,63.21
2023-03-29T02:45:14.336Z,63.83
2023-03-29T02:46:18.636Z,63.68
2023-03-29T02:47:30.150Z,63.86
2023-03-29T02:48:34.578Z,63.43
2023-03-29T02:49:36.844Z,63.80
2023-03-29T02:50:41.758Z,62.92
2023-03-29T02:51:47.429Z,62.50
2023-03-29T02:52:59.256Z,62.01
2023-03-29T02:54:11.193Z,61.86
2023-03-29T02:55:17.317Z,61.80
2023-03-29T02:56:22.069Z,62.18
2023-03-29T02:57:26.661Z,62.58
2023-03-29T02:58:29.558Z,62.60
2023-03-29T02:59:32.176Z,62.30
2023-03-29T03:00:43.106Z,62.77
2023-03-29T03:01:45.792Z,63.35
2023-03-29T03:02:48.725Z,62.94
2023-03-29T03:03:51.927Z,63.15
2023-03-29T03:04:55.495Z,62.98
2023-03-29T03:05:58.007Z,62.16
2023-03-29T03:06:59.907Z,62.13
2023-03-29T03:08:02.666Z,62.58
2023-03-29T03:09:05.979Z,62.70
2023-03-29T03:10:10.176Z,62.61
2023-03-29T03:11:12.451Z,62.58
2023-03-29T03:12:14.617Z,62.18
2023-03-29T03:13:16.477Z,61.84
2023-03-29T03:14:19.222Z,62.18
2023-03-29T03:15:21.084Z,62.40
2023-03-29T03:16:23.946Z,62.86
2023-03-29T03:17:25.935Z,62.47
2023-03-29T03:18:27.862Z,61.97
2023-03-29T03:19:29.744Z,62.77
2023-03-29T03:20:31.591Z,63.09
2023-03-29T03:21:35.235Z,63.65
2023-03-29T03:22:37.210Z,63.82
2023-03-29T03:23:39.123Z,64.31
2023-03-29T03:24:43.026Z,64.68
2023-03-29T03:25:46.108Z,64.59
2023-03-29T03:26:50.040Z,63.79
2023-03-29T03:27:53.633Z,64.11
2023-03-29T03:28:56.531Z,64.08
2023-03-29T03:30:02.033Z,63.39
2023-03-29T03:31:07.140Z,63.20
2023-03-29T03:32:12.412Z,62.96
2023-03-29T03:33:16.987Z,62.97
2023-03-29T03:34:21.054Z,62.84
2023-03-29T03:35:23.707Z,63.29
2023-03-29T03:36:26.144Z,63.06
2023-03-29T03:37:31.893Z,63.65
2023-03-29T03:38:34.088Z,64.17
2023-03-29T03:39:36.769Z,65.31
2023-03-29T03:40:39.044Z,65.08
2023-03-29T03:41:41.105Z,65.29
2023-03-29T03:42:43.432Z,65.62
2023-03-29T03:43:48.959Z,65.22
2023-03-29T03:44:51.758Z,64.80
2023-03-29T03:45:55.730Z,64.89
2023-03-29T03:46:57.834Z,63.89
2023-03-29T03:48:00.166Z,64.76
2023-03-29T03:49:02.973Z,64.51
2023-03-29T03:50:06.181Z,63.96
2023-03-29T03:51:08.069Z,63.69
2023-03-29T03:52:10.198Z,63.33
2023-03-29T03:53:12.428Z,63.43
2023-03-29T03:54:20.594Z,63.69
2023-03-29T03:55:26.464Z,63.50
2023-03-29T03:56:31.023Z,62.67
2023-03-29T03:57:37.473Z,63.51
2023-03-29T03:58:40.080Z,63.50
2023-03-29T03:59:42.786Z,63.27
2023-03-29T04:00:51.571Z,62.65
2023-03-29T04:01:54.861Z,63.25
2023-03-29T04:02:57.067Z,63.41
2023-03-29T04:03:59.412Z,63.35
2023-03-29T04:05:03.487Z,63.91
2023-03-29T04:06:05.797Z,63.72
2023-03-29T04:07:13.099Z,63.84
2023-03-29T04:08:15.381Z,64.28
2023-03-29T04:09:20.414Z,65.12
2023-03-29T04:10:23.359Z,64.97
2023-03-29T04:11:25.980Z,65.29
2023-03-29T04:12:28.308Z,64.92
2023-03-29T04:13:30.267Z,64.70
2023-03-29T04:14:35.686Z,64.16
2023-03-29T04:15:39.213Z,64.11
2023-03-29T04:16:41.530Z,64.66
2023-03-29T04:17:47.773Z,64.75
2023-03-29T04:18:52.351Z,65.05
2023-03-29T04:19:54.329Z,65.60
2023-03-29T04:20:56.183Z,64.95
2023-03-29T04:21:58.599Z,64.47
2023-03-29T04:23:01.107Z,73.25
2023-03-29T04:24:03.576Z,67.92
2023-03-29T04:25:08.208Z,66.38
2023-03-29T04:26:15.926Z,65.65
2023-03-29T04:27:18.041Z,64.78
2023-03-29T04:28:20.390Z,64.24
2023-03-29T04:29:23.176Z,64.43
2023-03-29T04:30:25.826Z,64.96
2023-03-29T04:31:32.336Z,67.26
2023-03-29T04:32:35.197Z,64.47
2023-03-29T04:33:38.705Z,64.59
2023-03-29T04:34:40.602Z,64.31
2023-03-29T04:35:42.582Z,64.31
2023-03-29T04:36:45.280Z,64.73
2023-03-29T04:37:48.342Z,64.80
2023-03-29T04:38:52.371Z,64.53
2023-03-29T04:39:54.652Z,64.93
2023-03-29T04:41:01.284Z,64.88
2023-03-29T04:42:06.012Z,65.03
2023-03-29T04:43:08.126Z,65.08
2023-03-29T04:44:12.363Z,64.94
2023-03-29T04:45:18.107Z,64.68
2023-03-29T04:46:26.432Z,65.27
2023-03-29T04:47:30.153Z,65.59
2023-03-29T04:48:32.462Z,65.23
2023-03-29T04:49:34.678Z,65.23
2023-03-29T04:50:37.694Z,65.42
2023-03-29T04:51:39.835Z,65.54
2023-03-29T04:52:42.118Z,65.55
2023-03-29T04:53:43.994Z,65.46
2023-03-29T04:54:46.677Z,66.15
2023-03-29T04:55:49.673Z,66.06
2023-03-29T04:56:52.624Z,66.39
2023-03-29T04:57:55.834Z,66.71
2023-03-29T05:00:00.763Z,66.75
2023-03-29T05:01:06.932Z,71.98
2023-03-29T05:02:09.821Z,66.31
2023-03-29T05:03:15.155Z,65.27
2023-03-29T05:04:18.441Z,64.33
2023-03-29T05:05:23.981Z,63.62
2023-03-29T05:06:26.452Z,62.97
2023-03-29T05:07:28.377Z,63.98
2023-03-29T05:08:30.329Z,64.71
2023-03-29T05:09:35.465Z,65.14
2023-03-29T05:10:42.987Z,64.17
2023-03-29T05:11:45.215Z,63.50
2023-03-29T05:12:50.605Z,62.71
2023-03-29T05:13:52.509Z,60.54
2023-03-29T05:14:54.571Z,58.27
2023-03-29T05:15:57.292Z,55.82
2023-03-29T05:16:59.534Z,54.23
2023-03-29T05:18:01.560Z,54.44
2023-03-29T05:19:04.087Z,55.01
2023-03-29T05:20:09.700Z,55.56
2023-03-29T05:21:12.058Z,56.88
2023-03-29T05:22:16.668Z,57.27
2023-03-29T05:23:19.093Z,58.41
2023-03-29T05:24:25.155Z,58.38
2023-03-29T05:25:27.648Z,59.47
2023-03-29T05:26:29.885Z,59.47
2023-03-29T05:27:33.536Z,59.77
2023-03-29T05:28:35.760Z,60.27
2023-03-29T05:29:37.995Z,60.05
2023-03-29T05:30:41.383Z,59.62
2023-03-29T05:31:44.656Z,60.12
2023-03-29T05:32:46.998Z,59.82
2023-03-29T05:33:52.716Z,59.98
2023-03-29T05:34:54.806Z,59.67
2023-03-29T05:36:08.319Z,59.94
2023-03-29T05:37:13.417Z,60.46
2023-03-29T05:38:17.041Z,60.85
2023-03-29T05:39:19.040Z,60.85
2023-03-29T05:40:21.112Z,61.11
2023-03-29T05:41:25.770Z,61.47
2023-03-29T05:42:30.152Z,61.88
2023-03-29T05:43:32.900Z,61.71
2023-03-29T05:44:35.067Z,61.85
2023-03-29T05:45:39.061Z,60.96
2023-03-29T05:46:41.116Z,60.43
2023-03-29T05:47:48.019Z,60.06
2023-03-29T05:48:50.052Z,60.71
2023-03-29T05:49:54.038Z,60.99
2023-03-29T05:50:57.834Z,61.25
2023-03-29T05:52:00.415Z,61.71
2023-03-29T05:53:03.802Z,61.67
2023-03-29T05:54:05.870Z,61.26
2023-03-29T05:55:10.428Z,61.14
2023-03-29T05:56:16.052Z,61.14
2023-03-29T05:57:18.267Z,61.36
2023-03-29T05:58:21.734Z,61.36
2023-03-29T05:59:24.424Z,60.30
2023-03-29T06:00:26.805Z,59.34
2023-03-29T06:01:30.931Z,60.17
2023-03-29T06:02:33.696Z,60.26
2023-03-29T06:03:36.957Z,59.61
2023-03-29T06:04:39.991Z,64.14
2023-03-29T06:05:50.149Z,59.86
2023-03-29T06:06:53.222Z,58.96
2023-03-29T06:07:56.741Z,59.68
2023-03-29T06:09:01.347Z,58.87
2023-03-29T06:10:09.642Z,58.38
2023-03-29T06:11:13.448Z,58.76
2023-03-29T06:12:21.856Z,58.35
2023-03-29T06:13:24.204Z,58.08
2023-03-29T06:14:27.239Z,57.30
2023-03-29T06:15:29.877Z,57.49
2023-03-29T06:16:32.618Z,57.85
2023-03-29T06:17:34.876Z,58.52
2023-03-29T06:18:40.329Z,58.47
2023-03-29T06:19:42.545Z,58.16
2023-03-29T06:20:49.316Z,58.05
2023-03-29T06:21:53.793Z,58.38
2023-03-29T06:22:58.422Z,58.06
2023-03-29T06:24:00.317Z,57.68
2023-03-29T06:25:02.627Z,58.66
2023-03-29T06:26:05.930Z,58.51
2023-03-29T06:27:08.141Z,58.19
2023-03-29T06:28:11.946Z,57.55
2023-03-29T06:29:14.827Z,57.01
2023-03-29T06:30:20.976Z,56.99
2023-03-29T06:31:23.281Z,56.81
2023-03-29T06:32:26.032Z,57.35
2023-03-29T06:33:30.642Z,57.33
2023-03-29T06:34:38.074Z,57.28
2023-03-29T06:35:44.301Z,56.35
2023-03-29T06:36:51.198Z,56.03
2023-03-29T06:37:56.019Z,55.59
2023-03-29T06:39:00.102Z,56.08
2023-03-29T06:40:07.260Z,56.23
2023-03-29T06:41:13.143Z,56.16
2023-03-29T06:42:21.044Z,56.17
2023-03-29T06:43:24.652Z,56.75
2023-03-29T06:44:28.423Z,56.62
2023-03-29T06:45:33.711Z,57.34
2023-03-29T06:46:37.524Z,57.20
2023-03-29T06:47:41.159Z,56.87
2023-03-29T06:48:43.178Z,56.81
2023-03-29T06:49:45.533Z,56.37
2023-03-29T06:50:49.650Z,56.30
2023-03-29T06:51:53.875Z,76.91
2023-03-29T06:52:56.664Z,73.42
2023-03-29T06:53:58.617Z,58.78
2023-03-29T06:55:01.905Z,54.54
2023-03-29T06:56:09.121Z,54.89
2023-03-29T06:57:13.325Z,74.91
2023-03-29T06:58:16.466Z,55.04
2023-03-29T06:59:18.859Z,54.39
2023-03-29T07:00:28.399Z,54.32
2023-03-29T07:01:34.647Z,76.71
2023-03-29T07:02:37.926Z,58.87
2023-03-29T07:03:46.762Z,54.09
2023-03-29T07:04:49.430Z,54.17
2023-03-29T07:05:53.030Z,52.65
2023-03-29T07:07:01.816Z,57.70
2023-03-29T07:08:07.314Z,51.30
2023-03-29T07:09:12.921Z,48.53
2023-03-29T07:10:16.591Z,49.56
2023-03-29T07:11:21.233Z,50.39
2023-03-29T07:12:23.701Z,49.69
2023-03-29T07:13:26.315Z,49.38
2023-03-29T07:14:31.518Z,48.71
2023-03-29T07:15:33.540Z,52.23
2023-03-29T07:16:37.669Z,49.56
2023-03-29T07:17:39.854Z,50.34
2023-03-29T07:18:43.883Z,50.23
2023-03-29T07:19:48.905Z,50.09
2023-03-29T07:20:52.208Z,75.92
2023-03-29T07:21:54.500Z,48.21
2023-03-29T07:22:57.388Z,46.58
2023-03-29T07:23:59.579Z,47.14
2023-03-29T07:25:01.511Z,45.60
2023-03-29T07:26:07.616Z,46.44
2023-03-29T07:27:09.903Z,45.61
2023-03-29T07:28:11.850Z,45.21
2023-03-29T07:29:14.191Z,44.53
2023-03-29T07:30:23.146Z,44.50
2023-03-29T07:31:25.637Z,43.90
2023-03-29T07:32:31.360Z,43.87
2023-03-29T07:33:35.228Z,43.75
2023-03-29T07:34:38.330Z,44.11
2023-03-29T07:35:43.455Z,44.04
2023-03-29T07:36:45.410Z,42.58
2023-03-29T07:37:47.925Z,43.15
2023-03-29T07:38:50.168Z,42.88
2023-03-29T07:39:53.473Z,42.75
2023-03-29T07:40:59.042Z,41.61
2023-03-29T07:42:02.437Z,42.26
2023-03-29T07:43:08.953Z,43.01
2023-03-29T07:44:11.425Z,42.85
2023-03-29T07:45:16.394Z,42.08
2023-03-29T07:46:20.338Z,42.56
2023-03-29T07:47:23.585Z,41.96
2023-03-29T07:48:25.876Z,41.13
2023-03-29T07:49:29.093Z,41.77
2023-03-29T07:50:32.612Z,42.08
2023-03-29T07:51:37.413Z,42.49
2023-03-29T07:52:40.845Z,40.98
2023-03-29T07:53:43.125Z,40.65
2023-03-29T07:54:46.398Z,39.63
2023-03-29T07:55:52.580Z,39.91
2023-03-29T07:56:58.863Z,39.17
2023-03-29T07:58:04.353Z,39.78
2023-03-29T07:59:08.380Z,39.12
2023-03-29T08:00:17.081Z,38.64
2023-03-29T08:01:21.756Z,36.96
2023-03-29T08:02:27.372Z,36.19
2023-03-29T08:03:30.863Z,36.63
2023-03-29T08:04:42.860Z,36.25
2023-03-29T08:05:47.733Z,38.00
2023-03-29T08:06:50.605Z,36.71
2023-03-29T08:07:52.768Z,36.70
2023-03-29T08:08:55.176Z,38.30
2023-03-29T08:09:57.417Z,35.61
2023-03-29T08:11:00.294Z,34.32
2023-03-29T08:12:02.933Z,33.59
2023-03-29T08:13:08.452Z,32.86
2023-03-29T08:14:11.466Z,32.73
2023-03-29T08:15:15.281Z,32.97
2023-03-29T08:16:18.234Z,33.00
2023-03-29T08:17:21.314Z,33.14
2023-03-29T08:18:23.471Z,32.49
2023-03-29T08:19:25.756Z,32.42
2023-03-29T08:20:28.100Z,31.63
2023-03-29T08:21:30.482Z,31.59
2023-03-29T08:22:34.422Z,31.57
2023-03-29T08:23:37.478Z,30.48
2023-03-29T08:24:39.690Z,31.03
2023-03-29T08:25:42.411Z,31.80
2023-03-29T08:26:44.593Z,30.98
2023-03-29T08:27:48.676Z,31.63
2023-03-29T08:28:53.035Z,30.86
2023-03-29T08:29:55.213Z,30.28
2023-03-29T08:30:57.271Z,29.68
2023-03-29T08:31:59.570Z,29.95
2023-03-29T08:33:02.235Z,30.11
2023-03-29T08:34:04.714Z,30.67
2023-03-29T08:35:09.657Z,32.15
2023-03-29T08:36:12.486Z,31.76
2023-03-29T08:37:14.984Z,30.90
2023-03-29T08:38:17.476Z,31.18
2023-03-29T08:39:19.825Z,31.68
2023-03-29T08:40:27.253Z,31.05
2023-03-29T08:41:49.499Z,30.70
2023-03-29T08:43:16.625Z,29.54
2023-03-29T08:44:26.619Z,29.73
2023-03-29T08:45:51.014Z,30.48
2023-03-29T08:47:37.814Z,29.99
2023-03-29T08:48:52.202Z,29.02
2023-03-29T08:49:57.435Z,28.25
2023-03-29T08:51:32.445Z,28.28
2023-03-29T08:52:41.411Z,28.95
2023-03-29T08:53:52.457Z,29.49
2023-03-29T08:54:57.339Z,27.89
2023-03-29T08:56:12.267Z,26.25
2023-03-29T08:57:28.210Z,27.97
2023-03-29T08:58:33.556Z,31.60
2023-03-29T08:59:35.920Z,49.63
2023-03-29T09:00:47.189Z,29.66
2023-03-29T09:01:53.185Z,28.78
2023-03-29T09:02:57.536Z,28.77
2023-03-29T09:04:11.740Z,28.19
2023-03-29T09:05:40.181Z,29.69
2023-03-29T09:06:43.425Z,30.45
2023-03-29T09:07:46.135Z,29.29
2023-03-29T09:08:51.013Z,29.94
2023-03-29T09:09:54.401Z,30.12
2023-03-29T09:11:18.436Z,28.96
2023-03-29T09:12:41.173Z,29.32
2023-03-29T09:13:46.026Z,29.72
2023-03-29T09:14:47.998Z,30.66
2023-03-29T09:16:19.632Z,31.25
2023-03-29T09:17:24.406Z,30.86
2023-03-29T09:18:38.291Z,30.23
2023-03-29T09:19:53.071Z,29.74
2023-03-29T09:21:13.044Z,29.72
2023-03-29T09:22:23.331Z,29.04
2023-03-29T09:23:31.930Z,28.48
2023-03-29T09:25:11.076Z,28.91
2023-03-29T09:26:36.980Z,28.61
2023-03-29T09:27:42.306Z,27.89
2023-03-29T09:28:45.794Z,28.30
2023-03-29T09:30:04.733Z,27.69
2023-03-29T09:31:31.002Z,27.99
2023-03-29T09:33:06.574Z,27.45
2023-03-29T09:34:18.579Z,27.70
2023-03-29T09:35:47.827Z,27.11
2023-03-29T09:36:54.397Z,27.04
2023-03-29T09:37:57.119Z,26.37
2023-03-29T09:38:59.693Z,26.67
2023-03-29T09:40:11.099Z,26.85
2023-03-29T09:41:16.660Z,27.83
2023-03-29T09:42:20.345Z,28.07
2023-03-29T09:43:37.890Z,28.88
2023-03-29T09:44:52.693Z,28.45
2023-03-29T09:46:00.705Z,36.78
2023-03-29T09:47:19.854Z,28.00
2023-03-29T09:48:23.102Z,26.51
2023-03-29T09:49:31.372Z,26.99
2023-03-29T09:50:37.856Z,26.73
2023-03-29T09:51:42.647Z,26.96
2023-03-29T09:52:45.021Z,27.04
2023-03-29T09:53:47.369Z,26.78
2023-03-29T09:54:51.999Z,27.73
2023-03-29T09:55:58.411Z,27.10
2023-03-29T09:57:01.107Z,26.83
2023-03-29T09:58:19.712Z,26.34
2023-03-29T09:59:21.968Z,26.68
2023-03-29T10:00:24.767Z,25.61
2023-03-29T10:01:37.467Z,26.42
2023-03-29T10:02:41.026Z,26.91
2023-03-29T10:03:50.108Z,27.67
2023-03-29T10:05:04.060Z,27.16
2023-03-29T10:06:11.066Z,27.03
2023-03-29T10:07:20.572Z,27.64
2023-03-29T10:08:31.497Z,27.52
2023-03-29T10:09:35.062Z,27.47
2023-03-29T10:10:39.213Z,29.25
2023-03-29T10:11:41.615Z,28.66
2023-03-29T10:12:50.552Z,27.81
2023-03-29T10:13:57.527Z,27.04
2023-03-29T10:15:00.882Z,27.45
2023-03-29T10:16:03.976Z,27.41
2023-03-29T10:17:14.757Z,27.05
2023-03-29T10:18:17.043Z,26.64
2023-03-29T10:19:35.794Z,26.66
2023-03-29T10:20:40.655Z,27.02
2023-03-29T10:21:42.641Z,27.37
2023-03-29T10:22:57.244Z,26.99
2023-03-29T10:23:59.577Z,27.25
2023-03-29T10:25:02.135Z,27.73
2023-03-29T10:26:07.826Z,28.42
2023-03-29T10:27:11.809Z,28.61
2023-03-29T10:28:17.673Z,28.78
2023-03-29T10:29:20.195Z,29.22
2023-03-29T10:30:25.338Z,29.21
2023-03-29T10:31:33.064Z,28.70
2023-03-29T10:32:37.671Z,28.72
2023-03-29T10:33:39.709Z,29.56
2023-03-29T10:34:43.140Z,27.70
2023-03-29T10:35:47.216Z,28.25
2023-03-29T10:36:58.724Z,28.50
2023-03-29T10:38:05.324Z,28.44
2023-03-29T10:39:07.341Z,27.52
2023-03-29T10:40:43.381Z,27.91
2023-03-29T10:41:45.969Z,28.38
2023-03-29T10:42:50.257Z,27.33
2023-03-29T10:43:52.256Z,28.08
2023-03-29T10:44:58.801Z,27.43
2023-03-29T10:46:22.254Z,27.68
2023-03-29T10:47:24.663Z,28.18
2023-03-29T10:48:31.189Z,27.96
2023-03-29T10:49:41.115Z,28.37
2023-03-29T10:50:48.586Z,28.00
2023-03-29T10:51:52.550Z,27.48
2023-03-29T10:52:54.538Z,27.14
2023-03-29T10:53:59.122Z,28.48
2023-03-29T10:55:01.069Z,28.28
2023-03-29T10:56:11.959Z,28.19
2023-03-29T10:57:22.816Z,28.38
2023-03-29T10:58:47.804Z,27.05
2023-03-29T11:00:04.861Z,27.09
2023-03-29T11:01:17.508Z,27.67
2023-03-29T11:02:30.376Z,26.40
2023-03-29T11:04:07.973Z,26.55
2023-03-29T11:05:13.479Z,26.34
2023-03-29T11:06:29.787Z,28.11
2023-03-29T11:07:48.416Z,27.88
2023-03-29T11:09:05.274Z,27.80
2023-03-29T11:10:28.467Z,27.39
2023-03-29T11:11:44.112Z,26.35
2023-03-29T11:13:10.719Z,26.92
2023-03-29T11:14:41.388Z,26.63
2023-03-29T11:15:51.906Z,27.19
2023-03-29T11:17:02.579Z,27.53
2023-03-29T11:18:42.884Z,27.44
2023-03-29T11:19:56.630Z,27.69
2023-03-29T11:21:08.483Z,27.72
2023-03-29T11:22:50.364Z,27.77
2023-03-29T11:24:29.591Z,27.59
2023-03-29T11:25:45.745Z,27.66
2023-03-29T11:26:56.918Z,28.48
2023-03-29T11:28:01.655Z,28.24
2023-03-29T11:29:29.740Z,28.23
2023-03-29T11:30:48.280Z,27.96
2023-03-29T11:32:01.097Z,27.44
2023-03-29T11:33:03.035Z,27.13
2023-03-29T11:34:41.852Z,27.50
2023-03-29T11:35:43.704Z,28.33
2023-03-29T11:37:01.081Z,27.18
2023-03-29T11:38:16.116Z,27.69
2023-03-29T11:39:49.331Z,26.30
2023-03-29T11:41:09.581Z,26.61
2023-03-29T11:42:18.300Z,27.00
2023-03-29T11:43:31.194Z,26.84
2023-03-29T11:44:36.017Z,26.16
2023-03-29T11:45:51.367Z,26.61
2023-03-29T11:47:10.929Z,28.06
2023-03-29T11:48:31.261Z,27.66
2023-03-29T11:49:43.078Z,27.46
2023-03-29T11:50:54.688Z,27.62
2023-03-29T11:52:08.020Z,28.47
2023-03-29T11:53:18.018Z,27.52
2023-03-29T11:54:29.983Z,27.96
2023-03-29T11:55:36.631Z,28.20
2023-03-29T11:56:46.792Z,28.29
2023-03-29T11:57:54.064Z,26.77
2023-03-29T11:59:05.303Z,26.44
2023-03-29T12:00:14.638Z,26.53
2023-03-29T12:01:26.214Z,27.07
2023-03-29T12:02:50.764Z,27.33
2023-03-29T12:04:02.541Z,27.07
2023-03-29T12:05:20.537Z,26.78
2023-03-29T12:06:48.786Z,25.88
2023-03-29T12:08:06.303Z,26.01
2023-03-29T12:09:22.844Z,26.78
2023-03-29T12:10:33.965Z,25.88
2023-03-29T12:11:48.021Z,26.13
2023-03-29T12:12:59.665Z,26.79
2023-03-29T12:14:09.227Z,27.94
2023-03-29T12:15:20.334Z,27.19
2023-03-29T12:16:46.831Z,26.16
2023-03-29T12:17:59.400Z,25.77
2023-03-29T12:19:18.832Z,26.27
2023-03-29T12:20:28.367Z,26.32
2023-03-29T12:21:33.858Z,26.24
2023-03-29T12:22:37.802Z,27.51
2023-03-29T12:23:43.775Z,26.43
2023-03-29T12:24:51.446Z,26.06
2023-03-29T12:26:17.160Z,26.66
2023-03-29T12:27:44.920Z,26.35
2023-03-29T12:29:08.370Z,26.87
2023-03-29T12:30:24.206Z,27.45
2023-03-29T12:31:43.736Z,27.94
2023-03-29T12:32:54.033Z,27.72
2023-03-29T12:34:06.742Z,27.67
2023-03-29T12:35:40.487Z,27.79
2023-03-29T12:37:24.644Z,28.39
2023-03-29T12:38:31.261Z,28.98
2023-03-29T12:39:37.868Z,27.60
2023-03-29T12:41:04.084Z,26.91
2023-03-29T12:42:14.451Z,28.24
2023-03-29T12:43:24.192Z,28.10
2023-03-29T12:44:27.277Z,27.46
2023-03-29T12:45:48.164Z,27.68
2023-03-29T12:47:00.354Z,28.15
2023-03-29T12:48:02.993Z,28.59
2023-03-29T12:49:14.467Z,27.73
2023-03-29T12:50:32.716Z,27.51
2023-03-29T12:51:37.043Z,28.50
2023-03-29T12:52:42.924Z,28.56
2023-03-29T12:53:51.253Z,27.95
2023-03-29T12:54:58.532Z,27.96
2023-03-29T12:56:03.715Z,28.50
2023-03-29T12:57:45.025Z,27.98
2023-03-29T12:59:05.643Z,27.43
2023-03-29T13:00:31.509Z,27.63
2023-03-29T13:01:36.932Z,27.66
2023-03-29T13:02:39.703Z,26.45
2023-03-29T13:03:52.120Z,26.70
2023-03-29T13:04:54.036Z,26.44
2023-03-29T13:06:05.554Z,27.56
2023-03-29T13:07:27.992Z,34.30
2023-03-29T13:08:33.176Z,26.97
2023-03-29T13:09:46.969Z,27.51
2023-03-29T13:10:56.455Z,27.05
2023-03-29T13:12:06.753Z,27.61
2023-03-29T13:13:16.966Z,27.69
2023-03-29T13:14:21.762Z,27.05
2023-03-29T13:15:26.964Z,27.71
2023-03-29T13:16:34.910Z,26.59
2023-03-29T13:17:56.702Z,27.03
2023-03-29T13:19:07.736Z,27.56
2023-03-29T13:20:18.855Z,27.29
2023-03-29T13:21:42.778Z,27.59
2023-03-29T13:22:59.562Z,27.21
2023-03-29T13:24:36.576Z,27.34
2023-03-29T13:26:00.306Z,27.69
2023-03-29T13:27:21.642Z,28.18
2023-03-29T13:29:01.136Z,29.35
2023-03-29T13:30:09.342Z,28.80
2023-03-29T13:31:11.520Z,28.19
2023-03-29T13:32:37.815Z,29.71
2023-03-29T13:33:53.803Z,29.66
2023-03-29T13:35:30.029Z,29.33
2023-03-29T13:36:51.151Z,29.29
2023-03-29T13:38:03.661Z,29.22
2023-03-29T13:39:21.570Z,28.78
2023-03-29T13:40:42.952Z,29.22
2023-03-29T13:41:54.241Z,29.93
2023-03-29T13:43:08.303Z,29.42
2023-03-29T13:44:44.322Z,29.08
2023-03-29T13:46:11.810Z,29.36
2023-03-29T13:47:16.452Z,29.09
2023-03-29T13:48:27.300Z,27.97
2023-03-29T13:49:33.380Z,28.34
2023-03-29T13:50:51.683Z,28.07
2023-03-29T13:51:53.547Z,28.21
2023-03-29T13:53:10.119Z,30.30
2023-03-29T13:54:30.869Z,29.99
2023-03-29T13:55:47.435Z,29.62
2023-03-29T13:56:58.978Z,28.86
2023-03-29T13:58:09.809Z,28.88
2023-03-29T13:59:30.179Z,29.30
2023-03-29T14:00:42.021Z,29.67
2023-03-29T14:01:53.490Z,29.28
2023-03-29T14:03:04.296Z,29.84
2023-03-29T14:04:10.479Z,30.09
2023-03-29T14:05:16.930Z,30.50
2023-03-29T14:06:33.579Z,31.21
2023-03-29T14:07:39.211Z,30.76
2023-03-29T14:08:43.396Z,30.99
2023-03-29T14:09:49.740Z,31.32
2023-03-29T14:10:53.522Z,31.09
2023-03-29T14:11:56.545Z,31.53
2023-03-29T14:13:04.603Z,32.02
2023-03-29T14:14:08.337Z,32.42
2023-03-29T14:15:21.466Z,32.08
2023-03-29T14:16:27.937Z,31.83
2023-03-29T14:17:30.996Z,32.29
2023-03-29T14:18:36.897Z,32.89
2023-03-29T14:19:38.832Z,33.42
2023-03-29T14:20:46.045Z,33.34
2023-03-29T14:21:51.274Z,32.82
2023-03-29T14:22:53.513Z,33.01
2023-03-29T14:24:01.759Z,32.90
2023-03-29T14:25:13.458Z,32.90
2023-03-29T14:26:18.969Z,32.96
2023-03-29T14:27:22.272Z,33.32
2023-03-29T14:28:27.991Z,32.30
2023-03-29T14:29:32.170Z,32.33
2023-03-29T14:30:34.160Z,32.14
2023-03-29T14:31:39.656Z,33.62
2023-03-29T14:32:41.586Z,32.79
2023-03-29T14:33:43.536Z,32.77
2023-03-29T14:34:50.194Z,31.98
2023-03-29T14:35:52.403Z,32.38